sensor_id;sensor_type;location;lat;lon;timestamp;P1;durP1;ratioP1;P2;durP2;ratioP2
33672;SDS011;20011;51.510;9.942;2023-03-19T00:00:28;11.68;;;5.90;;
33672;SDS011;20011;51.510;9.942;2023-03-19T00:02:55;13.27;;;5.72;;
33672;SDS011;20011;51.510;9.942;2023-03-19T00:05:23;9.80;;;5.22;;
33672;SDS011;20011;51.510;9.942;2023-03-19T00:07:50;8.80;;;5.47;;
33672;SDS011;20011;51.510;9.942;2023-03-19T00:10:17;12.80;;;6.13;;
33672;SDS011;20011;51.510;9.942;2023-03-19T00:12:44;6.97;;;4.78;;
33672;SDS011;20011;51.510;9.942;2023-03-19T00:15:11;11.02;;;5.30;;
33672;SDS011;20011;51.510;9.942;2023-03-19T00:17:42;9.10;;;4.72;;
33672;SDS011;20011;51.510;9.942;2023-03-19T00:20:10;9.15;;;5.22;;
33672;SDS011;20011;51.510;9.942;2023-03-19T00:22:38;9.63;;;5.10;;
33672;SDS011;20011;51.510;9.942;2023-03-19T00:25:06;10.43;;;4.88;;
33672;SDS011;20011;51.510;9.942;2023-03-19T00:27:34;11.32;;;5.53;;
33672;SDS011;20011;51.510;9.942;2023-03-19T00:30:03;17.05;;;7.00;;
33672;SDS011;20011;51.510;9.942;2023-03-19T00:32:40;10.88;;;6.07;;
33672;SDS011;20011;51.510;9.942;2023-03-19T00:35:07;16.27;;;6.47;;
33672;SDS011;20011;51.510;9.942;2023-03-19T00:37:34;13.63;;;7.85;;
33672;SDS011;20011;51.510;9.942;2023-03-19T00:40:02;13.15;;;8.02;;
33672;SDS011;20011;51.510;9.942;2023-03-19T00:42:32;11.05;;;7.30;;
33672;SDS011;20011;51.510;9.942;2023-03-19T00:44:59;9.13;;;5.88;;
33672;SDS011;20011;51.510;9.942;2023-03-19T00:47:26;13.15;;;4.85;;
33672;SDS011;20011;51.510;9.942;2023-03-19T00:49:53;10.73;;;4.65;;
33672;SDS011;20011;51.510;9.942;2023-03-19T00:52:21;9.57;;;4.90;;
33672;SDS011;20011;51.510;9.942;2023-03-19T00:54:48;11.05;;;5.30;;
33672;SDS011;20011;51.510;9.942;2023-03-19T00:57:16;10.82;;;5.20;;
33672;SDS011;20011;51.510;9.942;2023-03-19T00:59:44;11.80;;;4.72;;
33672;SDS011;20011;51.510;9.942;2023-03-19T01:02:11;10.27;;;4.35;;
33672;SDS011;20011;51.510;9.942;2023-03-19T01:04:38;7.72;;;4.65;;
33672;SDS011;20011;51.510;9.942;2023-03-19T01:07:05;7.35;;;3.88;;
33672;SDS011;20011;51.510;9.942;2023-03-19T01:09:32;9.27;;;3.65;;
33672;SDS011;20011;51.510;9.942;2023-03-19T01:12:01;6.43;;;3.80;;
33672;SDS011;20011;51.510;9.942;2023-03-19T01:14:30;13.02;;;4.38;;
33672;SDS011;20011;51.510;9.942;2023-03-19T01:16:58;12.10;;;4.22;;
33672;SDS011;20011;51.510;9.942;2023-03-19T01:19:25;6.63;;;3.90;;
33672;SDS011;20011;51.510;9.942;2023-03-19T01:21:52;11.43;;;5.30;;
33672;SDS011;20011;51.510;9.942;2023-03-19T01:24:21;10.82;;;4.15;;
33672;SDS011;20011;51.510;9.942;2023-03-19T01:26:53;5.45;;;3.72;;
33672;SDS011;20011;51.510;9.942;2023-03-19T01:29:29;10.90;;;4.18;;
33672;SDS011;20011;51.510;9.942;2023-03-19T01:32:03;7.57;;;4.03;;
33672;SDS011;20011;51.510;9.942;2023-03-19T01:34:34;9.48;;;4.55;;
33672;SDS011;20011;51.510;9.942;2023-03-19T01:37:10;6.63;;;4.28;;
33672;SDS011;20011;51.510;9.942;2023-03-19T01:39:38;13.40;;;4.90;;
33672;SDS011;20011;51.510;9.942;2023-03-19T01:42:09;9.45;;;5.13;;
33672;SDS011;20011;51.510;9.942;2023-03-19T01:51:10;6.97;;;4.35;;
33672;SDS011;20011;51.510;9.942;2023-03-19T01:53:46;7.78;;;4.47;;
33672;SDS011;20011;51.510;9.942;2023-03-19T01:56:35;9.85;;;5.25;;
33672;SDS011;20011;51.510;9.942;2023-03-19T01:59:16;10.30;;;4.25;;
33672;SDS011;20011;51.510;9.942;2023-03-19T02:02:12;8.48;;;4.38;;
33672;SDS011;20011;51.510;9.942;2023-03-19T02:04:45;7.43;;;4.60;;
33672;SDS011;20011;51.510;9.942;2023-03-19T02:07:14;6.15;;;3.60;;
33672;SDS011;20011;51.510;9.942;2023-03-19T02:09:42;9.85;;;4.82;;
33672;SDS011;20011;51.510;9.942;2023-03-19T02:12:10;10.32;;;5.38;;
33672;SDS011;20011;51.510;9.942;2023-03-19T02:14:38;5.70;;;4.40;;
33672;SDS011;20011;51.510;9.942;2023-03-19T02:17:05;10.82;;;5.28;;
33672;SDS011;20011;51.510;9.942;2023-03-19T02:19:37;14.17;;;5.27;;
33672;SDS011;20011;51.510;9.942;2023-03-19T02:22:15;9.65;;;5.18;;
33672;SDS011;20011;51.510;9.942;2023-03-19T02:24:57;9.57;;;5.05;;
33672;SDS011;20011;51.510;9.942;2023-03-19T02:27:31;12.55;;;4.20;;
33672;SDS011;20011;51.510;9.942;2023-03-19T02:29:58;7.50;;;4.30;;
33672;SDS011;20011;51.510;9.942;2023-03-19T02:32:28;9.18;;;4.45;;
33672;SDS011;20011;51.510;9.942;2023-03-19T02:34:55;8.88;;;4.30;;
33672;SDS011;20011;51.510;9.942;2023-03-19T02:37:26;8.18;;;4.50;;
33672;SDS011;20011;51.510;9.942;2023-03-19T02:40:06;7.78;;;4.28;;
33672;SDS011;20011;51.510;9.942;2023-03-19T02:42:36;9.55;;;5.15;;
33672;SDS011;20011;51.510;9.942;2023-03-19T02:45:03;7.90;;;4.53;;
33672;SDS011;20011;51.510;9.942;2023-03-19T02:47:31;10.55;;;5.57;;
33672;SDS011;20011;51.510;9.942;2023-03-19T02:49:58;8.95;;;5.72;;
33672;SDS011;20011;51.510;9.942;2023-03-19T02:52:25;14.02;;;5.65;;
33672;SDS011;20011;51.510;9.942;2023-03-19T02:54:53;13.25;;;6.35;;
33672;SDS011;20011;51.510;9.942;2023-03-19T02:57:20;10.65;;;5.97;;
33672;SDS011;20011;51.510;9.942;2023-03-19T02:59:48;14.07;;;6.65;;
33672;SDS011;20011;51.510;9.942;2023-03-19T03:02:15;11.27;;;5.55;;
33672;SDS011;20011;51.510;9.942;2023-03-19T03:04:42;10.50;;;5.78;;
33672;SDS011;20011;51.510;9.942;2023-03-19T03:07:09;13.55;;;5.85;;
33672;SDS011;20011;51.510;9.942;2023-03-19T03:09:35;8.70;;;5.43;;
33672;SDS011;20011;51.510;9.942;2023-03-19T03:12:06;8.95;;;5.03;;
33672;SDS011;20011;51.510;9.942;2023-03-19T03:14:33;8.05;;;5.07;;
33672;SDS011;20011;51.510;9.942;2023-03-19T03:17:01;14.35;;;5.47;;
33672;SDS011;20011;51.510;9.942;2023-03-19T03:19:28;12.88;;;4.97;;
33672;SDS011;20011;51.510;9.942;2023-03-19T03:21:56;10.48;;;5.07;;
33672;SDS011;20011;51.510;9.942;2023-03-19T03:24:23;10.82;;;5.70;;
33672;SDS011;20011;51.510;9.942;2023-03-19T03:26:50;8.60;;;4.82;;
33672;SDS011;20011;51.510;9.942;2023-03-19T03:29:18;8.35;;;4.35;;
33672;SDS011;20011;51.510;9.942;2023-03-19T03:31:45;11.00;;;4.32;;
33672;SDS011;20011;51.510;9.942;2023-03-19T03:34:13;16.13;;;5.40;;
33672;SDS011;20011;51.510;9.942;2023-03-19T03:36:40;8.02;;;4.82;;
33672;SDS011;20011;51.510;9.942;2023-03-19T03:39:07;6.63;;;4.57;;
33672;SDS011;20011;51.510;9.942;2023-03-19T03:41:34;7.80;;;4.32;;
33672;SDS011;20011;51.510;9.942;2023-03-19T03:44:01;7.18;;;4.18;;
33672;SDS011;20011;51.510;9.942;2023-03-19T03:46:31;7.25;;;4.60;;
33672;SDS011;20011;51.510;9.942;2023-03-19T03:48:59;9.80;;;5.05;;
33672;SDS011;20011;51.510;9.942;2023-03-19T03:51:26;8.32;;;4.43;;
33672;SDS011;20011;51.510;9.942;2023-03-19T03:53:53;8.85;;;4.90;;
33672;SDS011;20011;51.510;9.942;2023-03-19T03:56:20;6.72;;;4.60;;
33672;SDS011;20011;51.510;9.942;2023-03-19T03:58:47;7.80;;;4.95;;
33672;SDS011;20011;51.510;9.942;2023-03-19T04:01:14;8.30;;;4.45;;
33672;SDS011;20011;51.510;9.942;2023-03-19T04:03:45;12.45;;;4.93;;
33672;SDS011;20011;51.510;9.942;2023-03-19T04:06:13;9.98;;;5.45;;
33672;SDS011;20011;51.510;9.942;2023-03-19T04:11:10;11.27;;;5.30;;
33672;SDS011;20011;51.510;9.942;2023-03-19T04:13:37;7.97;;;5.25;;
33672;SDS011;20011;51.510;9.942;2023-03-19T04:16:05;9.02;;;5.32;;
33672;SDS011;20011;51.510;9.942;2023-03-19T04:18:33;7.18;;;4.65;;
33672;SDS011;20011;51.510;9.942;2023-03-19T04:21:02;10.90;;;5.72;;
33672;SDS011;20011;51.510;9.942;2023-03-19T04:23:30;8.38;;;5.00;;
33672;SDS011;20011;51.510;9.942;2023-03-19T04:25:58;7.72;;;5.15;;
33672;SDS011;20011;51.510;9.942;2023-03-19T04:28:28;9.35;;;5.22;;
33672;SDS011;20011;51.510;9.942;2023-03-19T04:30:59;7.85;;;5.60;;
33672;SDS011;20011;51.510;9.942;2023-03-19T04:33:29;7.80;;;4.85;;
33672;SDS011;20011;51.510;9.942;2023-03-19T04:35:57;7.32;;;4.90;;
33672;SDS011;20011;51.510;9.942;2023-03-19T04:38:24;9.65;;;5.28;;
33672;SDS011;20011;51.510;9.942;2023-03-19T04:40:56;7.80;;;5.13;;
33672;SDS011;20011;51.510;9.942;2023-03-19T04:43:23;10.52;;;5.65;;
33672;SDS011;20011;51.510;9.942;2023-03-19T04:45:51;8.48;;;5.50;;
33672;SDS011;20011;51.510;9.942;2023-03-19T04:48:21;11.32;;;5.32;;
33672;SDS011;20011;51.510;9.942;2023-03-19T04:50:50;11.68;;;4.82;;
33672;SDS011;20011;51.510;9.942;2023-03-19T04:53:18;9.15;;;4.93;;
33672;SDS011;20011;51.510;9.942;2023-03-19T04:55:46;9.90;;;4.68;;
33672;SDS011;20011;51.510;9.942;2023-03-19T04:58:16;4.97;;;4.38;;
33672;SDS011;20011;51.510;9.942;2023-03-19T05:00:48;6.35;;;4.53;;
33672;SDS011;20011;51.510;9.942;2023-03-19T05:03:20;8.52;;;4.97;;
33672;SDS011;20011;51.510;9.942;2023-03-19T05:05:47;7.68;;;4.43;;
33672;SDS011;20011;51.510;9.942;2023-03-19T05:08:14;14.38;;;4.95;;
33672;SDS011;20011;51.510;9.942;2023-03-19T05:10:42;15.73;;;5.10;;
33672;SDS011;20011;51.510;9.942;2023-03-19T05:13:09;5.20;;;4.22;;
33672;SDS011;20011;51.510;9.942;2023-03-19T05:15:41;6.63;;;4.50;;
33672;SDS011;20011;51.510;9.942;2023-03-19T05:18:10;7.90;;;4.80;;
33672;SDS011;20011;51.510;9.942;2023-03-19T05:20:41;12.90;;;4.93;;
33672;SDS011;20011;51.510;9.942;2023-03-19T05:23:18;10.43;;;4.38;;
33672;SDS011;20011;51.510;9.942;2023-03-19T05:25:54;10.70;;;4.97;;
33672;SDS011;20011;51.510;9.942;2023-03-19T05:28:50;6.82;;;4.80;;
33672;SDS011;20011;51.510;9.942;2023-03-19T05:31:28;14.00;;;4.50;;
33672;SDS011;20011;51.510;9.942;2023-03-19T05:33:55;10.02;;;4.35;;
33672;SDS011;20011;51.510;9.942;2023-03-19T05:36:23;7.60;;;4.65;;
33672;SDS011;20011;51.510;9.942;2023-03-19T05:39:01;11.38;;;4.35;;
33672;SDS011;20011;51.510;9.942;2023-03-19T05:41:33;9.00;;;4.53;;
33672;SDS011;20011;51.510;9.942;2023-03-19T05:44:03;6.35;;;4.40;;
33672;SDS011;20011;51.510;9.942;2023-03-19T05:46:42;9.63;;;4.15;;
33672;SDS011;20011;51.510;9.942;2023-03-19T05:49:09;6.65;;;4.13;;
33672;SDS011;20011;51.510;9.942;2023-03-19T05:51:36;5.30;;;3.70;;
33672;SDS011;20011;51.510;9.942;2023-03-19T05:54:06;8.57;;;4.70;;
33672;SDS011;20011;51.510;9.942;2023-03-19T05:56:35;8.10;;;4.10;;
33672;SDS011;20011;51.510;9.942;2023-03-19T05:59:28;5.55;;;4.10;;
33672;SDS011;20011;51.510;9.942;2023-03-19T06:02:10;11.00;;;4.10;;
33672;SDS011;20011;51.510;9.942;2023-03-19T06:04:38;7.57;;;3.83;;
33672;SDS011;20011;51.510;9.942;2023-03-19T06:07:05;23.27;;;5.32;;
33672;SDS011;20011;51.510;9.942;2023-03-19T06:09:34;7.72;;;4.25;;
33672;SDS011;20011;51.510;9.942;2023-03-19T06:12:02;7.72;;;4.10;;
33672;SDS011;20011;51.510;9.942;2023-03-19T06:14:52;10.82;;;4.30;;
33672;SDS011;20011;51.510;9.942;2023-03-19T06:17:48;9.30;;;4.18;;
33672;SDS011;20011;51.510;9.942;2023-03-19T06:20:16;8.43;;;4.53;;
33672;SDS011;20011;51.510;9.942;2023-03-19T06:22:43;9.73;;;4.20;;
33672;SDS011;20011;51.510;9.942;2023-03-19T06:25:11;9.32;;;4.93;;
33672;SDS011;20011;51.510;9.942;2023-03-19T06:27:39;12.68;;;5.60;;
33672;SDS011;20011;51.510;9.942;2023-03-19T06:30:22;9.48;;;4.20;;
33672;SDS011;20011;51.510;9.942;2023-03-19T06:32:49;10.88;;;4.93;;
33672;SDS011;20011;51.510;9.942;2023-03-19T06:35:17;7.88;;;5.22;;
33672;SDS011;20011;51.510;9.942;2023-03-19T06:37:46;6.07;;;4.47;;
33672;SDS011;20011;51.510;9.942;2023-03-19T06:40:14;13.80;;;5.75;;
33672;SDS011;20011;51.510;9.942;2023-03-19T06:42:44;13.10;;;5.57;;
33672;SDS011;20011;51.510;9.942;2023-03-19T06:45:14;10.48;;;5.30;;
33672;SDS011;20011;51.510;9.942;2023-03-19T06:50:13;12.35;;;5.63;;
33672;SDS011;20011;51.510;9.942;2023-03-19T06:52:48;10.57;;;5.97;;
33672;SDS011;20011;51.510;9.942;2023-03-19T06:55:15;11.88;;;5.60;;
33672;SDS011;20011;51.510;9.942;2023-03-19T06:57:44;9.40;;;5.70;;
33672;SDS011;20011;51.510;9.942;2023-03-19T07:00:14;11.20;;;5.97;;
33672;SDS011;20011;51.510;9.942;2023-03-19T07:02:42;17.90;;;5.82;;
33672;SDS011;20011;51.510;9.942;2023-03-19T07:05:09;12.10;;;5.95;;
33672;SDS011;20011;51.510;9.942;2023-03-19T07:07:36;11.07;;;6.03;;
33672;SDS011;20011;51.510;9.942;2023-03-19T07:10:03;10.82;;;6.07;;
33672;SDS011;20011;51.510;9.942;2023-03-19T07:12:31;10.48;;;6.00;;
33672;SDS011;20011;51.510;9.942;2023-03-19T07:14:58;12.57;;;4.97;;
33672;SDS011;20011;51.510;9.942;2023-03-19T07:17:25;12.60;;;5.22;;
33672;SDS011;20011;51.510;9.942;2023-03-19T07:19:52;18.13;;;5.63;;
33672;SDS011;20011;51.510;9.942;2023-03-19T07:22:19;12.45;;;5.55;;
33672;SDS011;20011;51.510;9.942;2023-03-19T07:24:47;14.45;;;6.07;;
33672;SDS011;20011;51.510;9.942;2023-03-19T07:27:14;11.88;;;5.40;;
33672;SDS011;20011;51.510;9.942;2023-03-19T07:29:41;8.75;;;6.10;;
33672;SDS011;20011;51.510;9.942;2023-03-19T07:32:09;11.13;;;6.50;;
33672;SDS011;20011;51.510;9.942;2023-03-19T07:34:36;10.10;;;6.35;;
33672;SDS011;20011;51.510;9.942;2023-03-19T07:37:04;13.40;;;7.25;;
33672;SDS011;20011;51.510;9.942;2023-03-19T07:39:31;13.93;;;6.28;;
33672;SDS011;20011;51.510;9.942;2023-03-19T07:41:58;10.60;;;6.20;;
33672;SDS011;20011;51.510;9.942;2023-03-19T07:44:27;12.20;;;6.22;;
33672;SDS011;20011;51.510;9.942;2023-03-19T07:46:55;12.43;;;7.15;;
33672;SDS011;20011;51.510;9.942;2023-03-19T07:49:22;8.57;;;6.75;;
33672;SDS011;20011;51.510;9.942;2023-03-19T07:51:49;11.90;;;6.70;;
33672;SDS011;20011;51.510;9.942;2023-03-19T07:54:16;11.02;;;6.75;;
33672;SDS011;20011;51.510;9.942;2023-03-19T07:56:43;15.82;;;7.72;;
33672;SDS011;20011;51.510;9.942;2023-03-19T07:59:10;10.32;;;5.85;;
33672;SDS011;20011;51.510;9.942;2023-03-19T08:01:37;13.95;;;6.50;;
33672;SDS011;20011;51.510;9.942;2023-03-19T08:04:04;11.43;;;7.15;;
33672;SDS011;20011;51.510;9.942;2023-03-19T08:06:31;11.38;;;6.72;;
33672;SDS011;20011;51.510;9.942;2023-03-19T08:08:58;10.10;;;6.80;;
33672;SDS011;20011;51.510;9.942;2023-03-19T08:11:26;10.27;;;6.80;;
33672;SDS011;20011;51.510;9.942;2023-03-19T08:13:55;11.45;;;6.65;;
33672;SDS011;20011;51.510;9.942;2023-03-19T08:16:21;12.60;;;6.80;;
33672;SDS011;20011;51.510;9.942;2023-03-19T08:18:48;10.95;;;6.40;;
33672;SDS011;20011;51.510;9.942;2023-03-19T08:21:17;8.25;;;6.18;;
33672;SDS011;20011;51.510;9.942;2023-03-19T08:23:44;10.48;;;6.75;;
33672;SDS011;20011;51.510;9.942;2023-03-19T08:26:11;13.48;;;7.05;;
33672;SDS011;20011;51.510;9.942;2023-03-19T08:28:39;11.80;;;7.63;;
33672;SDS011;20011;51.510;9.942;2023-03-19T08:31:09;9.48;;;7.00;;
33672;SDS011;20011;51.510;9.942;2023-03-19T08:33:38;8.43;;;6.55;;
33672;SDS011;20011;51.510;9.942;2023-03-19T08:36:06;9.65;;;6.07;;
33672;SDS011;20011;51.510;9.942;2023-03-19T08:38:36;14.85;;;5.82;;
33672;SDS011;20011;51.510;9.942;2023-03-19T08:41:03;10.70;;;6.50;;
33672;SDS011;20011;51.510;9.942;2023-03-19T08:43:32;10.48;;;6.55;;
33672;SDS011;20011;51.510;9.942;2023-03-19T08:46:02;14.05;;;5.63;;
33672;SDS011;20011;51.510;9.942;2023-03-19T08:48:30;7.90;;;5.95;;
33672;SDS011;20011;51.510;9.942;2023-03-19T08:50:58;8.82;;;5.93;;
33672;SDS011;20011;51.510;9.942;2023-03-19T08:53:28;15.35;;;6.40;;
33672;SDS011;20011;51.510;9.942;2023-03-19T08:55:57;15.13;;;6.70;;
33672;SDS011;20011;51.510;9.942;2023-03-19T08:58:25;16.73;;;5.47;;
33672;SDS011;20011;51.510;9.942;2023-03-19T09:00:59;16.95;;;5.53;;
33672;SDS011;20011;51.510;9.942;2023-03-19T09:03:35;11.57;;;6.00;;
33672;SDS011;20011;51.510;9.942;2023-03-19T09:06:03;8.93;;;5.60;;
33672;SDS011;20011;51.510;9.942;2023-03-19T09:08:32;12.30;;;5.75;;
33672;SDS011;20011;51.510;9.942;2023-03-19T09:11:00;15.63;;;5.30;;
33672;SDS011;20011;51.510;9.942;2023-03-19T09:13:26;9.10;;;5.45;;
33672;SDS011;20011;51.510;9.942;2023-03-19T09:15:53;14.02;;;5.43;;
33672;SDS011;20011;51.510;9.942;2023-03-19T09:18:21;14.18;;;5.20;;
33672;SDS011;20011;51.510;9.942;2023-03-19T09:20:51;8.98;;;4.35;;
33672;SDS011;20011;51.510;9.942;2023-03-19T09:23:19;8.30;;;4.40;;
33672;SDS011;20011;51.510;9.942;2023-03-19T09:25:47;8.80;;;4.30;;
33672;SDS011;20011;51.510;9.942;2023-03-19T09:28:14;12.15;;;4.30;;
33672;SDS011;20011;51.510;9.942;2023-03-19T09:30:43;9.52;;;4.72;;
33672;SDS011;20011;51.510;9.942;2023-03-19T09:33:12;10.38;;;4.68;;
33672;SDS011;20011;51.510;9.942;2023-03-19T09:35:39;9.43;;;5.22;;
33672;SDS011;20011;51.510;9.942;2023-03-19T09:38:07;8.07;;;4.80;;
33672;SDS011;20011;51.510;9.942;2023-03-19T09:40:38;5.53;;;3.97;;
33672;SDS011;20011;51.510;9.942;2023-03-19T09:45:58;9.15;;;4.10;;
33672;SDS011;20011;51.510;9.942;2023-03-19T09:48:31;7.82;;;4.10;;
33672;SDS011;20011;51.510;9.942;2023-03-19T09:51:04;8.50;;;4.93;;
33672;SDS011;20011;51.510;9.942;2023-03-19T09:53:52;11.68;;;4.90;;
33672;SDS011;20011;51.510;9.942;2023-03-19T09:56:23;14.38;;;5.15;;
33672;SDS011;20011;51.510;9.942;2023-03-19T09:58:51;9.48;;;5.22;;
33672;SDS011;20011;51.510;9.942;2023-03-19T10:01:23;17.38;;;5.20;;
33672;SDS011;20011;51.510;9.942;2023-03-19T10:22:49;10.52;;;4.55;;
33672;SDS011;20011;51.510;9.942;2023-03-19T10:25:21;9.60;;;4.18;;
33672;SDS011;20011;51.510;9.942;2023-03-19T10:28:10;13.93;;;4.43;;
33672;SDS011;20011;51.510;9.942;2023-03-19T10:30:41;8.98;;;4.78;;
33672;SDS011;20011;51.510;9.942;2023-03-19T10:35:43;7.45;;;3.90;;
33672;SDS011;20011;51.510;9.942;2023-03-19T10:38:21;10.85;;;3.78;;
33672;SDS011;20011;51.510;9.942;2023-03-19T10:43:37;7.55;;;4.00;;
33672;SDS011;20011;51.510;9.942;2023-03-19T10:46:10;10.20;;;4.25;;
33672;SDS011;20011;51.510;9.942;2023-03-19T10:48:42;7.00;;;3.50;;
33672;SDS011;20011;51.510;9.942;2023-03-19T10:51:10;6.88;;;3.75;;
33672;SDS011;20011;51.510;9.942;2023-03-19T10:53:41;9.52;;;3.05;;
33672;SDS011;20011;51.510;9.942;2023-03-19T10:56:26;10.10;;;4.30;;
33672;SDS011;20011;51.510;9.942;2023-03-19T10:59:05;11.25;;;4.25;;
33672;SDS011;20011;51.510;9.942;2023-03-19T11:01:46;6.30;;;3.35;;
33672;SDS011;20011;51.510;9.942;2023-03-19T11:04:19;6.53;;;3.05;;
33672;SDS011;20011;51.510;9.942;2023-03-19T11:06:48;8.75;;;3.45;;
33672;SDS011;20011;51.510;9.942;2023-03-19T11:09:39;7.72;;;3.33;;
33672;SDS011;20011;51.510;9.942;2023-03-19T11:12:16;11.52;;;3.60;;
33672;SDS011;20011;51.510;9.942;2023-03-19T11:14:51;8.30;;;3.28;;
33672;SDS011;20011;51.510;9.942;2023-03-19T11:17:20;7.70;;;4.03;;
33672;SDS011;20011;51.510;9.942;2023-03-19T11:19:49;7.57;;;3.15;;
33672;SDS011;20011;51.510;9.942;2023-03-19T11:24:56;11.18;;;3.60;;
33672;SDS011;20011;51.510;9.942;2023-03-19T11:27:31;8.30;;;4.22;;
33672;SDS011;20011;51.510;9.942;2023-03-19T11:30:01;8.65;;;4.75;;
33672;SDS011;20011;51.510;9.942;2023-03-19T11:32:54;11.32;;;3.55;;
33672;SDS011;20011;51.510;9.942;2023-03-19T11:35:37;9.13;;;3.17;;
33672;SDS011;20011;51.510;9.942;2023-03-19T11:38:34;15.13;;;3.53;;
33672;SDS011;20011;51.510;9.942;2023-03-19T11:41:07;8.05;;;3.55;;
33672;SDS011;20011;51.510;9.942;2023-03-19T11:46:32;5.68;;;2.65;;
33672;SDS011;20011;51.510;9.942;2023-03-19T11:55:07;10.15;;;3.15;;
33672;SDS011;20011;51.510;9.942;2023-03-19T12:06:07;6.82;;;2.20;;
33672;SDS011;20011;51.510;9.942;2023-03-19T12:09:01;5.32;;;2.00;;
33672;SDS011;20011;51.510;9.942;2023-03-19T12:28:06;3.10;;;1.05;;
33672;SDS011;20011;51.510;9.942;2023-03-19T12:36:10;2.00;;;1.10;;
33672;SDS011;20011;51.510;9.942;2023-03-19T12:38:43;2.22;;;1.20;;
33672;SDS011;20011;51.510;9.942;2023-03-19T12:41:23;2.22;;;1.17;;
33672;SDS011;20011;51.510;9.942;2023-03-19T12:44:01;2.28;;;1.30;;
33672;SDS011;20011;51.510;9.942;2023-03-19T12:46:37;3.10;;;1.00;;
33672;SDS011;20011;51.510;9.942;2023-03-19T12:49:21;4.28;;;1.30;;
33672;SDS011;20011;51.510;9.942;2023-03-19T12:51:52;3.03;;;1.33;;
33672;SDS011;20011;51.510;9.942;2023-03-19T12:54:28;3.10;;;1.23;;
33672;SDS011;20011;51.510;9.942;2023-03-19T12:57:03;3.13;;;1.75;;
33672;SDS011;20011;51.510;9.942;2023-03-19T12:59:36;2.22;;;0.90;;
33672;SDS011;20011;51.510;9.942;2023-03-19T13:02:24;2.45;;;1.48;;
33672;SDS011;20011;51.510;9.942;2023-03-19T13:05:05;2.15;;;1.02;;
33672;SDS011;20011;51.510;9.942;2023-03-19T13:10:19;1.45;;;1.13;;
33672;SDS011;20011;51.510;9.942;2023-03-19T13:12:47;2.05;;;1.50;;
33672;SDS011;20011;51.510;9.942;2023-03-19T13:15:23;1.98;;;1.20;;
33672;SDS011;20011;51.510;9.942;2023-03-19T13:22:58;1.67;;;1.20;;
33672;SDS011;20011;51.510;9.942;2023-03-19T13:25:35;4.25;;;1.55;;
33672;SDS011;20011;51.510;9.942;2023-03-19T13:28:05;2.45;;;1.20;;
33672;SDS011;20011;51.510;9.942;2023-03-19T13:30:36;1.15;;;1.05;;
33672;SDS011;20011;51.510;9.942;2023-03-19T13:33:17;2.95;;;1.48;;
33672;SDS011;20011;51.510;9.942;2023-03-19T13:35:48;2.70;;;1.33;;
33672;SDS011;20011;51.510;9.942;2023-03-19T13:38:17;4.65;;;1.35;;
33672;SDS011;20011;51.510;9.942;2023-03-19T13:59:35;2.13;;;1.10;;
33672;SDS011;20011;51.510;9.942;2023-03-19T14:02:43;7.53;;;1.67;;
33672;SDS011;20011;51.510;9.942;2023-03-19T14:05:04;3.58;;;1.25;;
33672;SDS011;20011;51.510;9.942;2023-03-19T14:07:43;3.38;;;2.20;;
33672;SDS011;20011;51.510;9.942;2023-03-19T14:10:25;5.10;;;2.67;;
33672;SDS011;20011;51.510;9.942;2023-03-19T14:13:01;6.05;;;3.00;;
33672;SDS011;20011;51.510;9.942;2023-03-19T14:15:32;7.55;;;4.65;;
33672;SDS011;20011;51.510;9.942;2023-03-19T14:18:00;12.32;;;5.78;;
33672;SDS011;20011;51.510;9.942;2023-03-19T14:20:58;7.38;;;2.90;;
33672;SDS011;20011;51.510;9.942;2023-03-19T14:23:33;2.67;;;1.70;;
33672;SDS011;20011;51.510;9.942;2023-03-19T14:26:12;2.50;;;1.20;;
33672;SDS011;20011;51.510;9.942;2023-03-19T14:29:06;8.50;;;1.20;;
33672;SDS011;20011;51.510;9.942;2023-03-19T14:31:58;1.02;;;0.90;;
33672;SDS011;20011;51.510;9.942;2023-03-19T14:34:31;2.38;;;1.08;;
33672;SDS011;20011;51.510;9.942;2023-03-19T14:37:07;2.40;;;0.80;;
33672;SDS011;20011;51.510;9.942;2023-03-19T14:39:49;4.75;;;1.27;;
33672;SDS011;20011;51.510;9.942;2023-03-19T14:45:07;10.75;;;1.30;;
33672;SDS011;20011;51.510;9.942;2023-03-19T14:56:31;1.27;;;0.95;;
33672;SDS011;20011;51.510;9.942;2023-03-19T14:59:00;1.55;;;0.90;;
33672;SDS011;20011;51.510;9.942;2023-03-19T15:01:33;1.33;;;1.08;;
33672;SDS011;20011;51.510;9.942;2023-03-19T15:04:07;1.80;;;0.90;;
33672;SDS011;20011;51.510;9.942;2023-03-19T15:06:36;2.55;;;1.05;;
33672;SDS011;20011;51.510;9.942;2023-03-19T15:09:13;1.75;;;1.13;;
33672;SDS011;20011;51.510;9.942;2023-03-19T15:17:58;1.08;;;0.98;;
33672;SDS011;20011;51.510;9.942;2023-03-19T15:20:31;1.08;;;0.80;;
33672;SDS011;20011;51.510;9.942;2023-03-19T15:23:04;0.98;;;0.98;;
33672;SDS011;20011;51.510;9.942;2023-03-19T15:25:52;1.73;;;1.10;;
33672;SDS011;20011;51.510;9.942;2023-03-19T15:28:26;1.42;;;1.02;;
33672;SDS011;20011;51.510;9.942;2023-03-19T15:31:10;0.80;;;0.80;;
33672;SDS011;20011;51.510;9.942;2023-03-19T15:33:58;1.15;;;0.90;;
33672;SDS011;20011;51.510;9.942;2023-03-19T15:36:29;0.68;;;0.65;;
33672;SDS011;20011;51.510;9.942;2023-03-19T15:39:16;1.80;;;0.90;;
33672;SDS011;20011;51.510;9.942;2023-03-19T15:41:46;0.80;;;0.80;;
33672;SDS011;20011;51.510;9.942;2023-03-19T15:44:16;0.80;;;0.80;;
33672;SDS011;20011;51.510;9.942;2023-03-19T15:46:50;8.65;;;0.85;;
33672;SDS011;20011;51.510;9.942;2023-03-19T15:49:20;1.88;;;0.80;;
33672;SDS011;20011;51.510;9.942;2023-03-19T15:51:52;2.75;;;1.30;;
33672;SDS011;20011;51.510;9.942;2023-03-19T15:54:24;1.00;;;0.98;;
33672;SDS011;20011;51.510;9.942;2023-03-19T15:56:52;1.52;;;1.20;;
33672;SDS011;20011;51.510;9.942;2023-03-19T15:59:20;3.55;;;1.30;;
33672;SDS011;20011;51.510;9.942;2023-03-19T16:01:51;0.98;;;0.90;;
33672;SDS011;20011;51.510;9.942;2023-03-19T16:04:22;2.42;;;1.02;;
33672;SDS011;20011;51.510;9.942;2023-03-19T16:09:22;1.08;;;0.98;;
33672;SDS011;20011;51.510;9.942;2023-03-19T16:12:26;1.30;;;0.80;;
33672;SDS011;20011;51.510;9.942;2023-03-19T16:17:47;1.45;;;0.80;;
33672;SDS011;20011;51.510;9.942;2023-03-19T16:20:52;1.50;;;0.95;;
33672;SDS011;20011;51.510;9.942;2023-03-19T16:23:36;1.90;;;1.02;;
33672;SDS011;20011;51.510;9.942;2023-03-19T16:28:41;1.90;;;1.15;;
33672;SDS011;20011;51.510;9.942;2023-03-19T16:31:19;2.67;;;1.17;;
33672;SDS011;20011;51.510;9.942;2023-03-19T16:33:51;2.03;;;1.13;;
33672;SDS011;20011;51.510;9.942;2023-03-19T16:36:19;4.85;;;1.08;;
33672;SDS011;20011;51.510;9.942;2023-03-19T16:38:54;3.00;;;1.00;;
33672;SDS011;20011;51.510;9.942;2023-03-19T16:41:23;3.00;;;1.30;;
33672;SDS011;20011;51.510;9.942;2023-03-19T16:43:59;2.97;;;1.20;;
33672;SDS011;20011;51.510;9.942;2023-03-19T16:46:43;3.70;;;1.85;;
33672;SDS011;20011;51.510;9.942;2023-03-19T16:49:10;2.92;;;1.42;;
33672;SDS011;20011;51.510;9.942;2023-03-19T16:51:37;2.65;;;1.10;;
33672;SDS011;20011;51.510;9.942;2023-03-19T16:54:05;3.08;;;0.93;;
33672;SDS011;20011;51.510;9.942;2023-03-19T16:56:31;2.85;;;1.30;;
33672;SDS011;20011;51.510;9.942;2023-03-19T16:58:59;5.90;;;1.45;;
33672;SDS011;20011;51.510;9.942;2023-03-19T17:01:28;2.25;;;1.30;;
33672;SDS011;20011;51.510;9.942;2023-03-19T17:03:55;2.72;;;1.25;;
33672;SDS011;20011;51.510;9.942;2023-03-19T17:06:22;2.47;;;1.60;;
33672;SDS011;20011;51.510;9.942;2023-03-19T17:08:49;2.67;;;1.50;;
33672;SDS011;20011;51.510;9.942;2023-03-19T17:11:29;2.15;;;1.40;;
33672;SDS011;20011;51.510;9.942;2023-03-19T17:14:00;5.07;;;2.35;;
33672;SDS011;20011;51.510;9.942;2023-03-19T17:16:28;3.95;;;2.17;;
33672;SDS011;20011;51.510;9.942;2023-03-19T17:18:56;2.80;;;1.55;;
33672;SDS011;20011;51.510;9.942;2023-03-19T17:21:24;4.05;;;1.90;;